»·PEaware :: PUNT11 KEND-KICT

PUNT11 :: KEND-KICT

FLIGHT INFORMATION

Flight Status: Arrived
Operator: Unknown
More flights by this operator :: More flights under this callsign
Pilot: Stephen S. (22026)
Aircraft: BEECH AIRCRAFT T-6A TEXAN
(TEX2)
More flights by this aircraft type
Origin: KEND Vance AFB
United States
Destination: KICT Wichita Mid-Continent
United States
More flights between these airports :: More routes between these airports
Route: CORMI/D015 ANY V12 ICT
File this flight plan on PilotEdge
Remarks: MOA DELAY AT CORMI. Flight of 2.
Altitude:
(Current/Filed)
13,000ft
Speed:
(Current/Filed)
260kts
Departed: 05-Apr-21 11:30 AM
Arrived: 05-Apr-21 12:02 PM
Distance/Time
Traveled:
82nm/0:31
Distance/Time
To Go:
Arrived

Flight Plot

Page will automatically refresh every two minutes.

Flight plan parsing failed; only flown route is shown


Map Options




Map Legend


Flown Route
Filed Route
Departure Airport
Arrival Airport
Navaid (VOR, NDB)
Fix

Horizontal Profiles

Position Reports

Time Latitude Longitude Heading Altitude Ground
Speed
05-Apr-21 11:21 36.346975 -97.910200 220 1277ft 0kts
05-Apr-21 11:22 36.346975 -97.910200 220 1277ft 0kts
05-Apr-21 11:23 36.346975 -97.910200 220 1277ft 0kts
05-Apr-21 11:24 36.333430 -97.910261 270 1290ft 0kts
05-Apr-21 11:25 36.333430 -97.910260 270 1290ft 0kts
05-Apr-21 11:26 36.333430 -97.910262 270 1290ft 0kts
05-Apr-21 11:27 36.333430 -97.910262 270 1290ft 0kts
05-Apr-21 11:28 36.333430 -97.910263 270 1290ft 0kts
05-Apr-21 11:29 36.333475 -97.910915 0 1290ft 0kts
05-Apr-21 11:30 36.363164 -97.909263 7 1844ft 175kts
05-Apr-21 11:31 36.413994 -97.897290 1 4268ft 187kts
05-Apr-21 11:32 36.475004 -97.892508 347 5911ft 216kts
05-Apr-21 11:33 36.533437 -97.891679 1 9064ft 195kts
05-Apr-21 11:34 36.589209 -97.884018 0 11654ft 202kts
05-Apr-21 11:35 36.649023 -97.877389 2 13082ft 223kts
05-Apr-21 11:36 36.722058 -97.871157 1 13062ft 255kts
05-Apr-21 11:37 36.800341 -97.870923 350 12637ft 287kts
05-Apr-21 11:38 36.878391 -97.896891 340 11120ft 269kts
05-Apr-21 11:39 36.931474 -97.939781 274 10589ft 238kts
05-Apr-21 11:40 36.942981 -98.000664 271 10486ft 201kts
05-Apr-21 11:41 36.922970 -98.005387 101 11054ft 164kts
05-Apr-21 11:41 36.956004 -97.979257 336 10502ft 198kts
05-Apr-21 11:43 36.987126 -98.037597 336 10886ft 217kts
05-Apr-21 11:44 37.034216 -98.074686 323 12622ft 207kts
05-Apr-21 11:44 37.083061 -98.113489 325 13075ft 250kts
05-Apr-21 11:46 37.155374 -98.166674 328 12888ft 259kts
05-Apr-21 11:46 37.206252 -98.140370 48 13022ft 254kts
05-Apr-21 11:47 37.258516 -98.074855 38 12029ft 265kts
05-Apr-21 11:48 37.315226 -98.008378 38 9686ft 244kts
05-Apr-21 11:50 37.344720 -97.906190 80 6099ft 270kts
05-Apr-21 11:50 37.359800 -97.834139 75 3922ft 250kts
05-Apr-21 11:51 37.375565 -97.754705 68 3095ft 230kts
05-Apr-21 11:52 37.394285 -97.674365 74 2961ft 201kts
05-Apr-21 11:53 37.410871 -97.595736 74 3014ft 205kts
05-Apr-21 11:54 37.427305 -97.526896 50 2995ft 178kts
05-Apr-21 11:55 37.469798 -97.502706 14 2949ft 162kts
05-Apr-21 11:56 37.517446 -97.480525 11 3127ft 159kts
05-Apr-21 11:57 37.561333 -97.461376 13 2680ft 135kts
05-Apr-21 11:58 37.593667 -97.446302 9 2190ft 105kts
05-Apr-21 11:59 37.622123 -97.434958 12 1719ft 98kts
05-Apr-21 12:00 37.648656 -97.423586 18 1316ft 71kts
05-Apr-21 12:01 37.656999 -97.421277 288 1316ft 11kts
05-Apr-21 12:02 37.656796 -97.424508 203 1318ft 0kts
05-Apr-21 12:03 37.656796 -97.424508 203 1318ft 0kts
05-Apr-21 12:04 37.656796 -97.424508 203 1318ft 0kts
05-Apr-21 12:05 37.656796 -97.424508 203 1318ft 0kts
05-Apr-21 12:06 37.656796 -97.424508 203 1318ft 0kts
05-Apr-21 12:07 37.656796 -97.424508 203 1318ft 0kts
05-Apr-21 12:08 37.656796 -97.424508 203 1318ft 0kts
05-Apr-21 12:09 37.656796 -97.424508 203 1318ft 0kts

Navigation Log

Ident Type
Flight plan parsing failed, navigation log unavailable